メインページ
METAR-TAF:

METAR-TAF

空港 :

ヨハネスブルグ, 南アフリカ共和国

緯度: 26-09S, 経度: 28-00E, 海抜: 1626m

現時点の気象観測

当レポートは1時間9分前の11:00(UTC)に作成
北西の風 2kt
気温 18°C
湿度 59%
気圧 1027 hPa

METAR: FAJB 151100Z AUTO 32002KT //// // ////// 18/10 Q1027

時間: 14:09 (12:09 UTC)


TAF: 見つかりません

4,000以上の空港の気象観測と天気予報(METAR報とTAF報)

利用可能な観測所は地図上に黄色い丸と赤い丸で示す。

丸の上にカーソルを重ねると観測所名を参照できる。

次にクリックすると気象観測と天気予報を参照できる。

マップの切り替え:黒色「×」印の緑ボタンをクリックして拡大、「-」印の緑ボタンをクリックして縮小、緑色の三角印をクリックして隣りの地図に切り替え


METAR-TAF: